createdAt,value
2023-01-01T00:02:24.630Z,4.69
2023-01-01T00:04:51.555Z,4.68
2023-01-01T00:07:18.272Z,4.68
2023-01-01T00:10:14.088Z,4.62
2023-01-01T00:12:40.823Z,4.65
2023-01-01T00:15:08.188Z,4.63
2023-01-01T00:17:34.949Z,4.65
2023-01-01T00:20:01.697Z,4.63
2023-01-01T00:22:53.256Z,4.62
2023-01-01T00:25:15.295Z,4.56
2023-01-01T00:27:42.799Z,4.58
2023-01-01T00:30:11.254Z,4.58
2023-01-01T00:32:38.309Z,4.58
2023-01-01T00:35:05.779Z,4.51
2023-01-01T00:37:32.817Z,4.56
2023-01-01T00:39:59.643Z,4.56
2023-01-01T00:42:26.496Z,4.51
2023-01-01T00:44:53.264Z,4.56
2023-01-01T00:47:20.025Z,4.47
2023-01-01T00:49:46.818Z,4.43
2023-01-01T00:52:13.820Z,4.53
2023-01-01T00:54:40.615Z,4.51
2023-01-01T00:57:07.365Z,4.44
2023-01-01T00:59:34.165Z,4.37
2023-01-01T01:02:01.383Z,4.42
2023-01-01T01:04:28.362Z,4.52
2023-01-01T01:06:55.254Z,4.42
2023-01-01T01:09:22.040Z,4.38
2023-01-01T01:11:50.330Z,4.43
2023-01-01T01:14:17.096Z,4.40
2023-01-01T01:16:43.895Z,4.40
2023-01-01T01:19:15.283Z,4.31
2023-01-01T01:21:44.296Z,4.30
2023-01-01T01:24:11.346Z,4.27
2023-01-01T01:26:38.082Z,4.37
2023-01-01T01:29:05.254Z,4.31
2023-01-01T01:31:34.635Z,4.30
2023-01-01T01:34:02.333Z,4.25
2023-01-01T01:36:29.667Z,4.27
2023-01-01T01:38:57.903Z,4.25
2023-01-01T01:41:28.986Z,4.23
2023-01-01T01:44:27.617Z,4.23
2023-01-01T01:46:54.461Z,4.25
2023-01-01T01:49:30.328Z,4.23
2023-01-01T01:51:58.163Z,4.18
2023-01-01T01:54:28.113Z,4.11
2023-01-01T01:57:02.800Z,4.18
2023-01-01T01:59:39.276Z,4.17
2023-01-01T02:02:17.057Z,4.15
2023-01-01T02:04:44.381Z,4.06
2023-01-01T02:07:14.396Z,4.23
2023-01-01T02:09:41.791Z,4.22
2023-01-01T02:12:08.686Z,4.13
2023-01-01T02:14:35.552Z,4.01
2023-01-01T02:17:20.604Z,4.08
2023-01-01T02:20:02.397Z,4.09
2023-01-01T02:22:36.166Z,4.04
2023-01-01T02:25:21.059Z,3.98
2023-01-01T02:28:04.130Z,4.00
2023-01-01T02:30:32.098Z,3.92
2023-01-01T02:33:12.317Z,3.91
2023-01-01T02:35:44.419Z,4.01
2023-01-01T02:38:30.706Z,3.95
2023-01-01T02:41:03.177Z,3.94
2023-01-01T02:43:29.916Z,4.02
2023-01-01T02:45:57.304Z,3.92
2023-01-01T02:48:47.896Z,3.99
2023-01-01T02:51:14.541Z,3.92
2023-01-01T02:54:08.882Z,3.92
2023-01-01T02:56:48.626Z,3.82
2023-01-01T03:00:02.565Z,3.83
2023-01-01T03:02:57.163Z,3.79
2023-01-01T03:06:22.373Z,3.83
2023-01-01T03:09:28.848Z,3.76
2023-01-01T03:12:43.875Z,3.73
2023-01-01T03:15:24.598Z,3.74
2023-01-01T03:18:14.147Z,3.74
2023-01-01T03:20:45.901Z,3.70
2023-01-01T03:23:19.285Z,3.70
2023-01-01T03:25:50.977Z,3.75
2023-01-01T03:28:26.504Z,3.67
2023-01-01T03:30:54.099Z,3.61
2023-01-01T03:33:33.182Z,3.68
2023-01-01T03:36:25.320Z,3.52
2023-01-01T03:38:57.199Z,3.44
2023-01-01T03:41:40.756Z,3.39
2023-01-01T03:44:15.543Z,3.39
2023-01-01T03:46:42.682Z,3.27
2023-01-01T03:49:11.989Z,3.34
2023-01-01T03:51:47.457Z,3.34
2023-01-01T03:54:58.773Z,3.34
2023-01-01T03:57:50.160Z,3.29
2023-01-01T04:00:23.842Z,3.24
2023-01-01T04:03:08.504Z,3.30
2023-01-01T04:05:41.537Z,3.31
2023-01-01T04:08:08.847Z,3.28
2023-01-01T04:10:41.717Z,3.30
2023-01-01T04:13:08.436Z,3.28
2023-01-01T04:15:36.199Z,3.26
2023-01-01T04:18:04.043Z,3.28
2023-01-01T04:20:31.696Z,3.25
2023-01-01T04:23:02.565Z,3.28
2023-01-01T04:25:29.811Z,3.24
2023-01-01T04:27:58.294Z,3.17
2023-01-01T04:30:25.709Z,3.12
2023-01-01T04:32:52.696Z,3.07
2023-01-01T04:35:19.618Z,3.12
2023-01-01T04:37:46.423Z,3.17
2023-01-01T04:40:14.295Z,3.08
2023-01-01T04:42:41.946Z,3.11
2023-01-01T04:45:09.473Z,3.09
2023-01-01T04:47:36.295Z,3.07
2023-01-01T04:50:03.401Z,3.10
2023-01-01T04:52:30.138Z,2.99
2023-01-01T04:54:56.891Z,3.03
2023-01-01T04:57:23.670Z,2.99
2023-01-01T04:59:50.578Z,3.07
2023-01-01T05:02:17.395Z,3.01
2023-01-01T05:04:44.312Z,2.97
2023-01-01T05:07:11.107Z,2.93
2023-01-01T05:09:37.875Z,2.93
2023-01-01T05:12:04.826Z,2.95
2023-01-01T05:14:31.594Z,2.91
2023-01-01T05:16:58.377Z,2.88
2023-01-01T05:19:25.212Z,2.84
2023-01-01T05:21:51.978Z,2.80
2023-01-01T05:24:18.746Z,2.76
2023-01-01T05:26:46.685Z,2.77
2023-01-01T05:29:17.071Z,2.82
2023-01-01T05:31:45.652Z,2.76
2023-01-01T05:34:13.200Z,2.78
2023-01-01T05:36:40.129Z,2.79
2023-01-01T05:39:09.446Z,2.75
2023-01-01T05:41:36.867Z,2.76
2023-01-01T05:44:06.601Z,2.71
2023-01-01T05:46:33.853Z,2.75
2023-01-01T05:49:01.594Z,2.80
2023-01-01T05:53:58.375Z,2.74
2023-01-01T05:56:26.720Z,2.74
2023-01-01T05:58:54.345Z,2.70
2023-01-01T06:01:30.477Z,2.71
2023-01-01T06:03:59.558Z,2.70
2023-01-01T06:06:30.724Z,2.68
2023-01-01T06:09:04.228Z,2.67
2023-01-01T06:11:31.712Z,2.66
2023-01-01T06:14:00.384Z,2.68
2023-01-01T06:16:29.413Z,2.63
2023-01-01T06:18:56.313Z,2.62
2023-01-01T06:21:25.620Z,2.69
2023-01-01T06:23:52.910Z,2.57
2023-01-01T06:26:28.735Z,2.56
2023-01-01T06:28:56.579Z,2.59
2023-01-01T06:31:24.473Z,2.55
2023-01-01T06:33:51.520Z,2.54
2023-01-01T06:36:22.107Z,2.51
2023-01-01T06:38:52.622Z,2.50
2023-01-01T06:41:23.276Z,2.50
2023-01-01T06:43:50.847Z,2.51
2023-01-01T06:46:27.536Z,2.43
2023-01-01T06:48:57.874Z,2.45
2023-01-01T06:51:30.971Z,2.46
2023-01-01T06:54:02.343Z,2.41
2023-01-01T06:56:30.218Z,2.41
2023-01-01T06:58:57.539Z,2.43
2023-01-01T07:01:29.915Z,2.41
2023-01-01T07:04:03.544Z,2.39
2023-01-01T07:06:32.731Z,2.42
2023-01-01T07:08:59.624Z,2.35
2023-01-01T07:11:27.192Z,2.38
2023-01-01T07:13:54.590Z,2.38
2023-01-01T07:16:23.006Z,2.38
2023-01-01T07:18:50.891Z,2.39
2023-01-01T07:21:45.280Z,2.37
2023-01-01T07:24:14.604Z,2.29
2023-01-01T07:26:41.684Z,2.28
2023-01-01T07:29:09.034Z,2.32
2023-01-01T07:31:41.500Z,2.28
2023-01-01T07:34:13.524Z,2.29
2023-01-01T07:36:41.300Z,2.28
2023-01-01T07:39:08.356Z,2.29
2023-01-01T07:41:35.215Z,2.31
2023-01-01T07:44:02.183Z,2.27
2023-01-01T07:46:29.233Z,2.23
2023-01-01T07:48:57.132Z,2.33
2023-01-01T07:51:24.011Z,2.31
2023-01-01T07:53:50.818Z,2.37
2023-01-01T07:56:17.932Z,2.35
2023-01-01T07:58:44.732Z,2.30
2023-01-01T08:01:15.049Z,2.30
2023-01-01T08:03:42.157Z,2.36
2023-01-01T08:06:12.065Z,2.43
2023-01-01T08:08:39.525Z,2.45
2023-01-01T08:11:06.585Z,2.43
2023-01-01T08:13:33.420Z,2.50
2023-01-01T08:16:00.463Z,2.48
2023-01-01T08:18:27.451Z,2.53
2023-01-01T08:20:54.430Z,2.53
2023-01-01T08:23:21.285Z,2.56
2023-01-01T08:25:48.114Z,2.65
2023-01-01T08:28:14.917Z,2.65
2023-01-01T08:30:41.735Z,2.68
2023-01-01T08:33:08.521Z,2.77
2023-01-01T08:35:40.928Z,2.82
2023-01-01T08:38:10.199Z,2.86
2023-01-01T08:40:37.702Z,2.89
2023-01-01T08:43:04.509Z,2.97
2023-01-01T08:45:31.254Z,3.06
2023-01-01T08:47:58.057Z,3.06
2023-01-01T08:50:24.873Z,3.17
2023-01-01T08:52:51.798Z,3.24
2023-01-01T08:55:20.062Z,3.34
2023-01-01T08:57:47.048Z,3.31
2023-01-01T09:00:14.465Z,3.52
2023-01-01T09:02:41.275Z,3.53
2023-01-01T09:05:09.029Z,3.50
2023-01-01T09:07:35.929Z,3.56
2023-01-01T09:10:02.727Z,3.56
2023-01-01T09:12:30.207Z,3.71
2023-01-01T09:14:57.032Z,3.79
2023-01-01T09:17:23.788Z,3.78
2023-01-01T09:19:50.651Z,3.91
2023-01-01T09:22:17.435Z,4.04
2023-01-01T09:24:44.164Z,4.13
2023-01-01T09:27:10.975Z,4.18
2023-01-01T09:29:37.756Z,4.31
2023-01-01T09:32:04.933Z,4.40
2023-01-01T09:34:31.774Z,4.48
2023-01-01T09:36:58.563Z,4.64
2023-01-01T09:39:25.289Z,4.87
2023-01-01T09:41:55.228Z,5.12
2023-01-01T09:44:45.692Z,5.24
2023-01-01T09:47:41.672Z,5.40
2023-01-01T09:50:18.787Z,5.60
2023-01-01T09:53:03.701Z,5.86
2023-01-01T09:55:53.179Z,6.05
2023-01-01T09:58:26.657Z,6.11
2023-01-01T10:01:00.692Z,6.23
2023-01-01T10:03:49.736Z,6.42
2023-01-01T10:06:24.722Z,6.63
2023-01-01T10:09:17.507Z,6.81
2023-01-01T10:12:26.171Z,6.97
2023-01-01T10:15:03.726Z,7.24
2023-01-01T10:17:47.235Z,7.42
2023-01-01T10:20:47.148Z,7.58
2023-01-01T10:23:29.152Z,7.77
2023-01-01T10:25:58.633Z,7.96
2023-01-01T10:28:42.876Z,8.22
2023-01-01T10:31:33.264Z,8.44
2023-01-01T10:34:13.660Z,8.64
2023-01-01T10:36:40.539Z,8.73
2023-01-01T10:39:07.769Z,8.92
2023-01-01T10:41:34.628Z,9.04
2023-01-01T10:44:01.619Z,9.17
2023-01-01T10:46:32.189Z,9.35
2023-01-01T10:49:12.522Z,9.56
2023-01-01T10:51:48.582Z,9.79
2023-01-01T10:54:37.845Z,9.99
2023-01-01T10:57:37.909Z,10.44
2023-01-01T11:00:22.305Z,10.77
2023-01-01T11:03:13.997Z,11.11
2023-01-01T11:05:40.871Z,11.33
2023-01-01T11:08:19.332Z,11.57
2023-01-01T11:10:52.200Z,11.69
2023-01-01T11:13:20.699Z,11.81
2023-01-01T11:15:47.982Z,12.08
2023-01-01T11:18:38.192Z,12.22
2023-01-01T11:21:07.000Z,12.42
2023-01-01T11:23:39.859Z,12.57
2023-01-01T11:26:21.974Z,12.61
2023-01-01T11:29:28.688Z,12.76
2023-01-01T11:31:58.204Z,12.89
2023-01-01T11:34:38.675Z,12.91
2023-01-01T11:37:25.208Z,12.97
2023-01-01T11:39:55.135Z,13.07
2023-01-01T11:42:29.354Z,12.98
2023-01-01T11:45:21.248Z,13.24
2023-01-01T11:47:56.793Z,13.35
2023-01-01T11:50:34.047Z,13.25
2023-01-01T11:53:22.197Z,13.39
2023-01-01T11:56:15.165Z,13.40
2023-01-01T11:58:58.316Z,13.62
2023-01-01T12:01:52.908Z,13.70
2023-01-01T12:04:25.439Z,13.82
2023-01-01T12:07:05.548Z,13.86
2023-01-01T12:09:53.404Z,13.99
2023-01-01T12:12:35.997Z,14.16
2023-01-01T12:15:19.088Z,14.19
2023-01-01T12:18:13.896Z,14.13
2023-01-01T12:21:19.859Z,14.29
2023-01-01T12:23:47.060Z,14.37
2023-01-01T12:26:24.265Z,14.58
2023-01-01T12:29:28.554Z,14.55
2023-01-01T12:32:05.544Z,14.74
2023-01-01T12:34:53.360Z,14.87
2023-01-01T12:37:25.706Z,14.89
2023-01-01T12:40:42.851Z,15.10
2023-01-01T12:43:41.383Z,15.27
2023-01-01T12:46:56.202Z,15.31
2023-01-01T12:49:47.524Z,15.41
2023-01-01T12:52:53.503Z,15.52
2023-01-01T12:55:51.016Z,15.50
2023-01-01T12:59:05.446Z,15.46
2023-01-01T13:01:35.339Z,15.50
2023-01-01T13:04:18.548Z,15.20
2023-01-01T13:07:04.476Z,15.46
2023-01-01T13:09:36.717Z,15.45
2023-01-01T13:12:15.765Z,15.46
2023-01-01T13:14:49.675Z,15.52
2023-01-01T13:17:26.879Z,15.66
2023-01-01T13:20:21.414Z,15.68
2023-01-01T13:22:48.629Z,15.69
2023-01-01T13:25:16.159Z,15.85
2023-01-01T13:27:58.238Z,15.79
2023-01-01T13:30:37.523Z,15.71
2023-01-01T13:33:31.271Z,15.75
2023-01-01T13:36:13.095Z,15.94
2023-01-01T13:38:54.758Z,15.88
2023-01-01T13:41:27.740Z,16.02
2023-01-01T13:44:17.888Z,15.81
2023-01-01T13:46:44.624Z,15.90
2023-01-01T13:49:52.124Z,15.81
2023-01-01T13:52:42.913Z,15.77
2023-01-01T13:55:56.060Z,15.52
2023-01-01T13:58:44.587Z,15.39
2023-01-01T14:01:29.545Z,15.45
2023-01-01T14:03:58.505Z,15.37
2023-01-01T14:06:42.508Z,15.54
2023-01-01T14:09:15.468Z,15.29
2023-01-01T14:11:42.191Z,15.36
2023-01-01T14:14:25.086Z,15.54
2023-01-01T14:17:00.183Z,15.78
2023-01-01T14:19:28.265Z,15.71
2023-01-01T14:21:55.793Z,15.81
2023-01-01T14:24:25.076Z,15.95
2023-01-01T14:26:52.782Z,16.01
2023-01-01T14:29:31.221Z,15.91
2023-01-01T14:32:01.266Z,15.75
2023-01-01T14:34:33.388Z,15.63
2023-01-01T14:37:03.734Z,15.56
2023-01-01T14:39:35.595Z,15.47
2023-01-01T14:42:09.423Z,15.24
2023-01-01T14:44:49.555Z,14.93
2023-01-01T14:47:36.583Z,14.81
2023-01-01T14:50:13.463Z,14.66
2023-01-01T14:52:40.452Z,14.56
2023-01-01T14:55:08.559Z,14.48
2023-01-01T14:57:37.511Z,14.46
2023-01-01T15:00:26.697Z,14.40
2023-01-01T15:02:53.644Z,14.29
2023-01-01T15:05:23.350Z,14.25
2023-01-01T15:08:02.704Z,14.15
2023-01-01T15:10:35.183Z,14.01
2023-01-01T15:13:06.682Z,13.85
2023-01-01T15:15:46.542Z,13.70
2023-01-01T15:18:46.204Z,13.37
2023-01-01T15:21:31.156Z,13.28
2023-01-01T15:24:23.961Z,13.07
2023-01-01T15:26:54.099Z,12.90
2023-01-01T15:29:34.321Z,12.69
2023-01-01T15:32:14.071Z,12.53
2023-01-01T15:34:50.193Z,12.38
2023-01-01T15:37:42.874Z,12.20
2023-01-01T15:40:15.781Z,12.06
2023-01-01T15:42:57.428Z,11.89
2023-01-01T15:45:40.852Z,11.70
2023-01-01T15:48:10.444Z,11.55
2023-01-01T15:50:50.385Z,11.44
2023-01-01T15:53:27.626Z,11.27
2023-01-01T15:56:09.519Z,11.07
2023-01-01T15:58:42.289Z,10.95
2023-01-01T16:01:15.192Z,10.86
2023-01-01T16:03:44.799Z,10.63
2023-01-01T16:06:21.830Z,10.46
2023-01-01T16:08:48.945Z,10.35
2023-01-01T16:11:15.859Z,10.28
2023-01-01T16:13:42.666Z,10.21
2023-01-01T16:16:39.818Z,10.05
2023-01-01T16:19:15.123Z,9.99
2023-01-01T16:21:41.843Z,9.67
2023-01-01T16:24:14.494Z,9.66
2023-01-01T16:26:45.648Z,9.55
2023-01-01T16:29:12.499Z,9.50
2023-01-01T16:31:40.208Z,9.48
2023-01-01T16:34:07.439Z,9.45
2023-01-01T16:36:34.285Z,9.42
2023-01-01T16:39:01.404Z,9.33
2023-01-01T16:41:31.340Z,9.34
2023-01-01T16:43:58.170Z,9.27
2023-01-01T16:46:26.695Z,9.20
2023-01-01T16:48:54.235Z,9.20
2023-01-01T16:51:28.574Z,9.12
2023-01-01T16:53:55.954Z,8.95
2023-01-01T16:56:22.812Z,8.89
2023-01-01T16:58:52.389Z,8.74
2023-01-01T17:01:23.527Z,8.72
2023-01-01T17:03:51.125Z,8.66
2023-01-01T17:06:19.029Z,8.37
2023-01-01T17:08:45.771Z,8.40
2023-01-01T17:11:16.891Z,8.27
2023-01-01T17:13:47.121Z,8.29
2023-01-01T17:16:21.203Z,8.29
2023-01-01T17:21:40.068Z,8.03
2023-01-01T17:24:07.131Z,8.01
2023-01-01T17:26:34.014Z,7.98
2023-01-01T17:29:03.044Z,7.89
2023-01-01T17:31:30.273Z,7.87
2023-01-01T17:33:58.206Z,7.83
2023-01-01T17:36:28.450Z,7.82
2023-01-01T17:38:55.436Z,7.68
2023-01-01T17:41:23.462Z,7.65
2023-01-01T17:43:51.996Z,7.64
2023-01-01T17:46:22.288Z,7.51
2023-01-01T17:48:49.780Z,7.37
2023-01-01T17:51:18.605Z,7.25
2023-01-01T17:53:45.916Z,7.16
2023-01-01T17:56:15.691Z,7.05
2023-01-01T17:58:44.670Z,6.95
2023-01-01T18:01:11.431Z,6.90
2023-01-01T18:03:40.369Z,6.84
2023-01-01T18:06:08.066Z,6.74
2023-01-01T18:08:34.872Z,6.66
2023-01-01T18:11:01.639Z,6.65
2023-01-01T18:13:28.483Z,6.54
2023-01-01T18:16:03.721Z,6.49
2023-01-01T18:18:33.531Z,6.46
2023-01-01T18:21:19.539Z,6.42
2023-01-01T18:23:46.940Z,6.39
2023-01-01T18:26:13.693Z,6.20
2023-01-01T18:28:40.490Z,6.16
2023-01-01T18:31:10.492Z,6.19
2023-01-01T18:36:12.167Z,6.24
2023-01-01T18:38:40.217Z,6.21
2023-01-01T18:41:49.177Z,6.18
2023-01-01T18:44:26.815Z,6.18
2023-01-01T18:47:04.176Z,6.18
2023-01-01T18:49:32.371Z,6.08
2023-01-01T18:52:08.147Z,6.14
2023-01-01T18:54:35.573Z,6.11
2023-01-01T18:57:28.816Z,6.06
2023-01-01T18:59:58.857Z,6.02
2023-01-01T19:02:39.426Z,5.97
2023-01-01T19:05:34.692Z,5.90
2023-01-01T19:08:07.253Z,5.89
2023-01-01T19:10:55.482Z,5.85
2023-01-01T19:13:24.818Z,5.80
2023-01-01T19:16:11.485Z,5.80
2023-01-01T19:18:44.530Z,5.73
2023-01-01T19:21:11.213Z,5.72
2023-01-01T19:23:50.293Z,5.69
2023-01-01T19:26:23.304Z,5.57
2023-01-01T19:28:53.506Z,5.50
2023-01-01T19:31:21.651Z,5.40
2023-01-01T19:33:49.110Z,5.44
2023-01-01T19:36:16.040Z,5.33
2023-01-01T19:38:44.174Z,5.28
2023-01-01T19:41:11.496Z,5.24
2023-01-01T19:43:38.931Z,5.21
2023-01-01T19:46:05.884Z,5.13
2023-01-01T19:48:32.797Z,5.13
2023-01-01T19:50:59.636Z,5.06
2023-01-01T19:53:26.423Z,5.08
2023-01-01T19:55:53.149Z,5.12
2023-01-01T19:58:20.110Z,5.07
2023-01-01T20:00:46.908Z,4.96
2023-01-01T20:06:00.598Z,4.96
2023-01-01T20:08:28.666Z,4.99
2023-01-01T20:10:55.472Z,4.96
2023-01-01T20:13:22.394Z,4.95
2023-01-01T20:15:49.197Z,4.88
2023-01-01T20:18:15.952Z,4.81
2023-01-01T20:21:02.751Z,4.85
2023-01-01T20:23:29.654Z,4.87
2023-01-01T20:25:56.400Z,4.87
2023-01-01T20:28:41.604Z,4.85
2023-01-01T20:31:08.576Z,4.73
2023-01-01T20:33:35.391Z,4.72
2023-01-01T20:36:20.598Z,4.65
2023-01-01T20:38:47.326Z,4.66
2023-01-01T20:41:26.057Z,4.60
2023-01-01T20:43:59.756Z,4.57
2023-01-01T20:46:26.575Z,4.50
2023-01-01T20:48:53.927Z,4.45
2023-01-01T20:51:20.714Z,4.38
2023-01-01T20:53:47.639Z,4.44
2023-01-01T20:56:14.379Z,4.38
2023-01-01T20:58:47.655Z,4.38
2023-01-01T21:01:16.149Z,4.37
2023-01-01T21:03:42.950Z,4.35
2023-01-01T21:06:09.746Z,4.29
2023-01-01T21:08:36.510Z,4.33
2023-01-01T21:11:03.481Z,4.29
2023-01-01T21:13:30.388Z,4.27
2023-01-01T21:16:15.563Z,4.26
2023-01-01T21:18:42.701Z,4.27
2023-01-01T21:21:22.565Z,4.25
2023-01-01T21:23:51.294Z,4.14
2023-01-01T21:26:27.525Z,4.18
2023-01-01T21:28:55.090Z,4.14
2023-01-01T21:31:22.072Z,4.13
2023-01-01T21:33:48.824Z,4.11
2023-01-01T21:36:20.188Z,4.13
2023-01-01T21:38:49.237Z,4.06
2023-01-01T21:41:25.290Z,4.09
2023-01-01T21:43:58.373Z,4.01
2023-01-01T21:46:25.127Z,4.00
2023-01-01T21:49:15.513Z,3.92
2023-01-01T21:51:58.675Z,3.85
2023-01-01T21:54:33.147Z,3.78
2023-01-01T21:57:18.968Z,3.77
2023-01-01T21:59:50.717Z,3.77
2023-01-01T22:02:37.874Z,3.78
2023-01-01T22:05:30.308Z,3.69
2023-01-01T22:07:59.159Z,3.71
2023-01-01T22:10:35.841Z,3.72
2023-01-01T22:13:03.220Z,3.73
2023-01-01T22:15:41.132Z,3.73
2023-01-01T22:18:07.751Z,3.74
2023-01-01T22:20:39.294Z,3.73
2023-01-01T22:23:40.375Z,3.66
2023-01-01T22:26:29.149Z,3.65
2023-01-01T22:29:20.877Z,3.67
2023-01-01T22:31:49.493Z,3.67
2023-01-01T22:34:22.574Z,3.70
2023-01-01T22:36:49.296Z,3.60
2023-01-01T22:39:29.741Z,3.68
2023-01-01T22:41:56.992Z,3.70
2023-01-01T22:44:26.103Z,3.66
2023-01-01T22:46:53.426Z,3.66
2023-01-01T22:49:32.681Z,3.60
2023-01-01T22:51:59.936Z,3.65
2023-01-01T22:54:26.679Z,3.55
2023-01-01T22:56:53.445Z,3.57
2023-01-01T22:59:20.201Z,3.59
2023-01-01T23:01:47.080Z,3.58
2023-01-01T23:04:13.974Z,3.57
2023-01-01T23:06:40.788Z,3.57
2023-01-01T23:09:08.608Z,3.46
2023-01-01T23:11:35.404Z,3.47
2023-01-01T23:14:21.010Z,3.54
2023-01-01T23:16:47.729Z,3.53
2023-01-01T23:19:14.469Z,3.51
2023-01-01T23:21:45.025Z,3.49
2023-01-01T23:24:17.309Z,3.41
2023-01-01T23:26:44.615Z,3.46
2023-01-01T23:29:12.513Z,3.45
2023-01-01T23:31:40.405Z,3.48
2023-01-01T23:34:07.799Z,3.49
2023-01-01T23:36:35.058Z,3.43
2023-01-01T23:39:01.817Z,3.44
2023-01-01T23:41:28.574Z,3.38
2023-01-01T23:43:55.313Z,3.30
2023-01-01T23:46:22.335Z,3.40
2023-01-01T23:48:49.801Z,3.36
2023-01-01T23:51:17.664Z,3.33
2023-01-01T23:53:44.867Z,3.33
2023-01-01T23:56:12.273Z,3.34
2023-01-01T23:58:39.000Z,3.30
